sensor_id;sensor_type;location;lat;lon;timestamp;P1;durP1;ratioP1;P2;durP2;ratioP2
60239;SDS011;46102;39.012;-7.064;2022-10-16T00:00:39;2.20;;;1.60;;
60239;SDS011;46102;39.012;-7.064;2022-10-16T00:02:41;3.22;;;1.38;;
60239;SDS011;46102;39.012;-7.064;2022-10-16T00:04:42;1.60;;;1.50;;
60239;SDS011;46102;39.012;-7.064;2022-10-16T00:06:43;3.25;;;1.25;;
60239;SDS011;46102;39.012;-7.064;2022-10-16T00:08:44;4.07;;;1.48;;
60239;SDS011;46102;39.012;-7.064;2022-10-16T00:10:45;6.10;;;1.30;;
60239;SDS011;46102;39.012;-7.064;2022-10-16T00:12:46;1.55;;;1.45;;
60239;SDS011;46102;39.012;-7.064;2022-10-16T00:14:46;1.63;;;1.38;;
60239;SDS011;46102;39.012;-7.064;2022-10-16T00:16:47;3.38;;;1.00;;
60239;SDS011;46102;39.012;-7.064;2022-10-16T00:18:48;2.17;;;1.55;;
60239;SDS011;46102;39.012;-7.064;2022-10-16T00:20:49;2.83;;;1.52;;
60239;SDS011;46102;39.012;-7.064;2022-10-16T00:22:49;3.55;;;1.40;;
60239;SDS011;46102;39.012;-7.064;2022-10-16T00:24:50;2.20;;;1.40;;
60239;SDS011;46102;39.012;-7.064;2022-10-16T00:26:51;5.10;;;1.40;;
60239;SDS011;46102;39.012;-7.064;2022-10-16T00:28:52;1.60;;;1.50;;
60239;SDS011;46102;39.012;-7.064;2022-10-16T00:30:53;2.22;;;1.73;;
60239;SDS011;46102;39.012;-7.064;2022-10-16T00:32:53;3.85;;;1.35;;
60239;SDS011;46102;39.012;-7.064;2022-10-16T00:34:54;2.45;;;1.58;;
60239;SDS011;46102;39.012;-7.064;2022-10-16T00:36:55;2.92;;;1.80;;
60239;SDS011;46102;39.012;-7.064;2022-10-16T00:38:56;1.77;;;1.10;;
60239;SDS011;46102;39.012;-7.064;2022-10-16T00:40:59;2.42;;;2.15;;
60239;SDS011;46102;39.012;-7.064;2022-10-16T00:43:00;1.15;;;1.13;;
60239;SDS011;46102;39.012;-7.064;2022-10-16T00:45:02;1.08;;;1.00;;
60239;SDS011;46102;39.012;-7.064;2022-10-16T00:47:03;2.45;;;1.00;;
60239;SDS011;46102;39.012;-7.064;2022-10-16T00:49:08;1.60;;;1.50;;
60239;SDS011;46102;39.012;-7.064;2022-10-16T00:51:11;1.98;;;1.13;;
60239;SDS011;46102;39.012;-7.064;2022-10-16T00:53:11;2.70;;;1.17;;
60239;SDS011;46102;39.012;-7.064;2022-10-16T00:55:12;1.08;;;1.08;;
60239;SDS011;46102;39.012;-7.064;2022-10-16T00:57:13;1.70;;;1.40;;
60239;SDS011;46102;39.012;-7.064;2022-10-16T00:59:22;2.03;;;1.40;;
60239;SDS011;46102;39.012;-7.064;2022-10-16T01:01:26;4.32;;;1.38;;
60239;SDS011;46102;39.012;-7.064;2022-10-16T01:03:28;1.42;;;1.33;;
60239;SDS011;46102;39.012;-7.064;2022-10-16T01:05:37;1.40;;;1.30;;
60239;SDS011;46102;39.012;-7.064;2022-10-16T01:07:59;2.22;;;0.95;;
60239;SDS011;46102;39.012;-7.064;2022-10-16T01:10:26;3.30;;;1.13;;
60239;SDS011;46102;39.012;-7.064;2022-10-16T01:17:19;2.40;;;1.40;;
60239;SDS011;46102;39.012;-7.064;2022-10-16T01:19:38;2.70;;;1.30;;
60239;SDS011;46102;39.012;-7.064;2022-10-16T01:21:50;7.40;;;1.58;;
60239;SDS011;46102;39.012;-7.064;2022-10-16T01:28:06;2.15;;;1.30;;
60239;SDS011;46102;39.012;-7.064;2022-10-16T01:30:21;1.27;;;1.15;;
60239;SDS011;46102;39.012;-7.064;2022-10-16T01:32:33;2.58;;;1.42;;
60239;SDS011;46102;39.012;-7.064;2022-10-16T01:34:42;1.33;;;1.23;;
60239;SDS011;46102;39.012;-7.064;2022-10-16T01:37:02;1.48;;;0.90;;
60239;SDS011;46102;39.012;-7.064;2022-10-16T01:39:09;2.17;;;1.33;;
60239;SDS011;46102;39.012;-7.064;2022-10-16T01:43:41;3.47;;;1.48;;
60239;SDS011;46102;39.012;-7.064;2022-10-16T01:45:46;1.50;;;1.40;;
60239;SDS011;46102;39.012;-7.064;2022-10-16T01:47:48;1.95;;;1.02;;
60239;SDS011;46102;39.012;-7.064;2022-10-16T01:49:52;2.05;;;1.35;;
60239;SDS011;46102;39.012;-7.064;2022-10-16T01:51:55;2.58;;;1.35;;
60239;SDS011;46102;39.012;-7.064;2022-10-16T01:54:00;2.67;;;1.42;;
60239;SDS011;46102;39.012;-7.064;2022-10-16T01:56:03;6.03;;;1.45;;
60239;SDS011;46102;39.012;-7.064;2022-10-16T01:58:08;2.35;;;1.58;;
60239;SDS011;46102;39.012;-7.064;2022-10-16T02:00:11;3.97;;;1.10;;
60239;SDS011;46102;39.012;-7.064;2022-10-16T02:02:14;4.38;;;1.33;;
60239;SDS011;46102;39.012;-7.064;2022-10-16T02:04:19;1.33;;;1.30;;
60239;SDS011;46102;39.012;-7.064;2022-10-16T02:06:29;2.80;;;1.30;;
60239;SDS011;46102;39.012;-7.064;2022-10-16T02:08:30;1.80;;;1.30;;
60239;SDS011;46102;39.012;-7.064;2022-10-16T02:10:32;3.38;;;1.60;;
60239;SDS011;46102;39.012;-7.064;2022-10-16T02:12:35;4.95;;;1.35;;
60239;SDS011;46102;39.012;-7.064;2022-10-16T02:14:39;1.60;;;1.50;;
60239;SDS011;46102;39.012;-7.064;2022-10-16T02:16:42;1.05;;;1.00;;
60239;SDS011;46102;39.012;-7.064;2022-10-16T02:18:45;1.90;;;1.40;;
60239;SDS011;46102;39.012;-7.064;2022-10-16T02:23:00;1.87;;;1.07;;
60239;SDS011;46102;39.012;-7.064;2022-10-16T02:29:40;2.15;;;1.70;;
60239;SDS011;46102;39.012;-7.064;2022-10-16T02:31:46;4.20;;;1.77;;
60239;SDS011;46102;39.012;-7.064;2022-10-16T02:35:51;1.20;;;1.20;;
60239;SDS011;46102;39.012;-7.064;2022-10-16T02:37:52;2.58;;;1.52;;
60239;SDS011;46102;39.012;-7.064;2022-10-16T02:39:56;4.00;;;1.40;;
60239;SDS011;46102;39.012;-7.064;2022-10-16T02:41:58;1.77;;;1.67;;
60239;SDS011;46102;39.012;-7.064;2022-10-16T02:43:59;2.08;;;1.40;;
60239;SDS011;46102;39.012;-7.064;2022-10-16T02:46:00;3.85;;;1.60;;
60239;SDS011;46102;39.012;-7.064;2022-10-16T02:48:01;2.95;;;1.85;;
60239;SDS011;46102;39.012;-7.064;2022-10-16T02:50:02;5.90;;;1.42;;
60239;SDS011;46102;39.012;-7.064;2022-10-16T02:52:03;1.73;;;1.63;;
60239;SDS011;46102;39.012;-7.064;2022-10-16T02:54:04;2.13;;;1.88;;
60239;SDS011;46102;39.012;-7.064;2022-10-16T02:56:05;1.90;;;1.80;;
60239;SDS011;46102;39.012;-7.064;2022-10-16T02:58:06;3.42;;;1.60;;
60239;SDS011;46102;39.012;-7.064;2022-10-16T03:00:07;1.80;;;1.70;;
60239;SDS011;46102;39.012;-7.064;2022-10-16T03:02:13;6.18;;;1.70;;
60239;SDS011;46102;39.012;-7.064;2022-10-16T03:04:13;2.67;;;2.03;;
60239;SDS011;46102;39.012;-7.064;2022-10-16T03:06:15;3.13;;;1.70;;
60239;SDS011;46102;39.012;-7.064;2022-10-16T03:08:16;3.70;;;2.03;;
60239;SDS011;46102;39.012;-7.064;2022-10-16T03:10:17;1.13;;;1.13;;
60239;SDS011;46102;39.012;-7.064;2022-10-16T03:12:18;5.65;;;3.72;;
60239;SDS011;46102;39.012;-7.064;2022-10-16T03:14:19;4.18;;;1.80;;
60239;SDS011;46102;39.012;-7.064;2022-10-16T03:16:20;2.50;;;2.30;;
60239;SDS011;46102;39.012;-7.064;2022-10-16T03:18:21;6.32;;;3.00;;
60239;SDS011;46102;39.012;-7.064;2022-10-16T03:20:21;2.17;;;1.73;;
60239;SDS011;46102;39.012;-7.064;2022-10-16T03:22:22;3.05;;;2.38;;
60239;SDS011;46102;39.012;-7.064;2022-10-16T03:24:23;2.10;;;2.00;;
60239;SDS011;46102;39.012;-7.064;2022-10-16T03:26:24;6.53;;;1.90;;
60239;SDS011;46102;39.012;-7.064;2022-10-16T03:28:24;2.92;;;1.77;;
60239;SDS011;46102;39.012;-7.064;2022-10-16T03:30:25;3.10;;;2.38;;
60239;SDS011;46102;39.012;-7.064;2022-10-16T03:32:26;2.50;;;2.30;;
60239;SDS011;46102;39.012;-7.064;2022-10-16T03:34:28;2.50;;;2.30;;
60239;SDS011;46102;39.012;-7.064;2022-10-16T03:36:29;4.72;;;3.20;;
60239;SDS011;46102;39.012;-7.064;2022-10-16T03:38:30;2.65;;;2.45;;
60239;SDS011;46102;39.012;-7.064;2022-10-16T03:40:31;3.25;;;2.85;;
60239;SDS011;46102;39.012;-7.064;2022-10-16T03:42:32;4.70;;;2.75;;
60239;SDS011;46102;39.012;-7.064;2022-10-16T03:44:33;5.15;;;3.38;;
60239;SDS011;46102;39.012;-7.064;2022-10-16T03:46:33;3.92;;;3.63;;
60239;SDS011;46102;39.012;-7.064;2022-10-16T03:48:34;3.90;;;3.60;;
60239;SDS011;46102;39.012;-7.064;2022-10-16T03:50:35;5.35;;;3.70;;
60239;SDS011;46102;39.012;-7.064;2022-10-16T03:52:36;13.02;;;5.00;;
60239;SDS011;46102;39.012;-7.064;2022-10-16T03:54:37;5.15;;;3.47;;
60239;SDS011;46102;39.012;-7.064;2022-10-16T03:56:38;4.72;;;4.28;;
60239;SDS011;46102;39.012;-7.064;2022-10-16T03:58:38;7.63;;;3.72;;
60239;SDS011;46102;39.012;-7.064;2022-10-16T04:00:40;5.03;;;4.50;;
60239;SDS011;46102;39.012;-7.064;2022-10-16T04:02:42;4.07;;;3.75;;
60239;SDS011;46102;39.012;-7.064;2022-10-16T04:04:42;4.20;;;3.80;;
60239;SDS011;46102;39.012;-7.064;2022-10-16T04:06:43;4.00;;;3.65;;
60239;SDS011;46102;39.012;-7.064;2022-10-16T04:08:44;5.85;;;3.80;;
60239;SDS011;46102;39.012;-7.064;2022-10-16T04:10:45;4.85;;;4.25;;
60239;SDS011;46102;39.012;-7.064;2022-10-16T04:12:45;7.65;;;4.90;;
60239;SDS011;46102;39.012;-7.064;2022-10-16T04:14:46;6.00;;;4.45;;
60239;SDS011;46102;39.012;-7.064;2022-10-16T04:16:47;4.60;;;4.07;;
60239;SDS011;46102;39.012;-7.064;2022-10-16T04:18:48;4.93;;;4.43;;
60239;SDS011;46102;39.012;-7.064;2022-10-16T04:20:48;9.02;;;4.75;;
60239;SDS011;46102;39.012;-7.064;2022-10-16T04:22:49;12.25;;;5.07;;
60239;SDS011;46102;39.012;-7.064;2022-10-16T04:24:50;5.45;;;4.68;;
60239;SDS011;46102;39.012;-7.064;2022-10-16T04:26:51;5.93;;;4.68;;
60239;SDS011;46102;39.012;-7.064;2022-10-16T04:28:51;6.32;;;5.15;;
60239;SDS011;46102;39.012;-7.064;2022-10-16T04:30:52;7.43;;;4.22;;
60239;SDS011;46102;39.012;-7.064;2022-10-16T04:32:53;5.97;;;4.68;;
60239;SDS011;46102;39.012;-7.064;2022-10-16T04:34:54;7.75;;;4.82;;
60239;SDS011;46102;39.012;-7.064;2022-10-16T04:36:54;7.88;;;5.30;;
60239;SDS011;46102;39.012;-7.064;2022-10-16T04:38:55;4.68;;;3.63;;
60239;SDS011;46102;39.012;-7.064;2022-10-16T04:40:56;6.57;;;4.75;;
60239;SDS011;46102;39.012;-7.064;2022-10-16T04:42:57;5.80;;;4.20;;
60239;SDS011;46102;39.012;-7.064;2022-10-16T04:44:57;4.40;;;4.10;;
60239;SDS011;46102;39.012;-7.064;2022-10-16T04:46:58;5.75;;;4.75;;
60239;SDS011;46102;39.012;-7.064;2022-10-16T04:48:59;6.70;;;4.05;;
60239;SDS011;46102;39.012;-7.064;2022-10-16T04:50:59;4.40;;;4.00;;
60239;SDS011;46102;39.012;-7.064;2022-10-16T04:53:00;8.93;;;4.68;;
60239;SDS011;46102;39.012;-7.064;2022-10-16T04:55:01;9.52;;;5.00;;
60239;SDS011;46102;39.012;-7.064;2022-10-16T04:57:02;5.60;;;3.95;;
60239;SDS011;46102;39.012;-7.064;2022-10-16T04:59:05;4.82;;;4.40;;
60239;SDS011;46102;39.012;-7.064;2022-10-16T05:01:05;5.03;;;4.50;;
60239;SDS011;46102;39.012;-7.064;2022-10-16T05:03:06;5.10;;;4.22;;
60239;SDS011;46102;39.012;-7.064;2022-10-16T05:05:08;6.95;;;3.88;;
60239;SDS011;46102;39.012;-7.064;2022-10-16T05:07:10;6.07;;;3.50;;
60239;SDS011;46102;39.012;-7.064;2022-10-16T05:09:10;5.72;;;4.38;;
60239;SDS011;46102;39.012;-7.064;2022-10-16T05:11:11;5.10;;;4.25;;
60239;SDS011;46102;39.012;-7.064;2022-10-16T05:13:12;6.13;;;4.45;;
60239;SDS011;46102;39.012;-7.064;2022-10-16T05:15:13;4.25;;;3.92;;
60239;SDS011;46102;39.012;-7.064;2022-10-16T05:17:14;4.53;;;4.13;;
60239;SDS011;46102;39.012;-7.064;2022-10-16T05:19:15;5.40;;;4.63;;
60239;SDS011;46102;39.012;-7.064;2022-10-16T05:21:15;7.20;;;5.30;;
60239;SDS011;46102;39.012;-7.064;2022-10-16T05:23:16;6.53;;;4.53;;
60239;SDS011;46102;39.012;-7.064;2022-10-16T05:25:17;5.50;;;4.93;;
60239;SDS011;46102;39.012;-7.064;2022-10-16T05:27:18;4.55;;;4.18;;
60239;SDS011;46102;39.012;-7.064;2022-10-16T05:29:19;5.57;;;4.95;;
60239;SDS011;46102;39.012;-7.064;2022-10-16T05:31:20;9.23;;;4.90;;
60239;SDS011;46102;39.012;-7.064;2022-10-16T05:33:21;8.60;;;5.40;;
60239;SDS011;46102;39.012;-7.064;2022-10-16T05:35:22;4.88;;;4.38;;
60239;SDS011;46102;39.012;-7.064;2022-10-16T05:37:23;8.90;;;4.65;;
60239;SDS011;46102;39.012;-7.064;2022-10-16T05:39:23;5.93;;;4.72;;
60239;SDS011;46102;39.012;-7.064;2022-10-16T05:41:24;6.63;;;4.93;;
60239;SDS011;46102;39.012;-7.064;2022-10-16T05:43:29;5.85;;;5.25;;
60239;SDS011;46102;39.012;-7.064;2022-10-16T05:45:31;7.30;;;5.18;;
60239;SDS011;46102;39.012;-7.064;2022-10-16T05:47:31;7.65;;;4.63;;
60239;SDS011;46102;39.012;-7.064;2022-10-16T05:49:32;6.35;;;5.20;;
60239;SDS011;46102;39.012;-7.064;2022-10-16T05:51:33;5.88;;;4.60;;
60239;SDS011;46102;39.012;-7.064;2022-10-16T05:53:34;6.32;;;4.95;;
60239;SDS011;46102;39.012;-7.064;2022-10-16T05:55:36;8.00;;;5.47;;
60239;SDS011;46102;39.012;-7.064;2022-10-16T05:57:37;10.30;;;6.32;;
60239;SDS011;46102;39.012;-7.064;2022-10-16T05:59:38;8.48;;;5.55;;
60239;SDS011;46102;39.012;-7.064;2022-10-16T06:01:39;7.53;;;5.00;;
60239;SDS011;46102;39.012;-7.064;2022-10-16T06:03:40;6.90;;;5.10;;
60239;SDS011;46102;39.012;-7.064;2022-10-16T06:05:41;5.82;;;5.07;;
60239;SDS011;46102;39.012;-7.064;2022-10-16T06:07:43;5.25;;;4.60;;
60239;SDS011;46102;39.012;-7.064;2022-10-16T06:09:43;5.00;;;4.47;;
60239;SDS011;46102;39.012;-7.064;2022-10-16T06:11:44;6.80;;;5.63;;
60239;SDS011;46102;39.012;-7.064;2022-10-16T06:13:45;12.32;;;5.53;;
60239;SDS011;46102;39.012;-7.064;2022-10-16T06:15:50;7.05;;;4.28;;
60239;SDS011;46102;39.012;-7.064;2022-10-16T06:17:50;4.30;;;4.00;;
60239;SDS011;46102;39.012;-7.064;2022-10-16T06:19:51;5.70;;;5.10;;
60239;SDS011;46102;39.012;-7.064;2022-10-16T06:21:52;5.63;;;5.07;;
60239;SDS011;46102;39.012;-7.064;2022-10-16T06:23:53;7.80;;;4.57;;
60239;SDS011;46102;39.012;-7.064;2022-10-16T06:26:03;5.80;;;4.40;;
60239;SDS011;46102;39.012;-7.064;2022-10-16T06:28:04;8.07;;;5.53;;
60239;SDS011;46102;39.012;-7.064;2022-10-16T06:30:06;6.47;;;5.18;;
60239;SDS011;46102;39.012;-7.064;2022-10-16T06:32:07;5.95;;;4.88;;
60239;SDS011;46102;39.012;-7.064;2022-10-16T06:34:08;6.68;;;5.97;;
60239;SDS011;46102;39.012;-7.064;2022-10-16T06:36:11;6.50;;;5.35;;
60239;SDS011;46102;39.012;-7.064;2022-10-16T06:38:14;5.63;;;4.50;;
60239;SDS011;46102;39.012;-7.064;2022-10-16T06:40:14;5.50;;;4.97;;
60239;SDS011;46102;39.012;-7.064;2022-10-16T06:42:15;5.00;;;4.10;;
60239;SDS011;46102;39.012;-7.064;2022-10-16T06:44:16;5.28;;;4.78;;
60239;SDS011;46102;39.012;-7.064;2022-10-16T06:46:18;6.47;;;4.78;;
60239;SDS011;46102;39.012;-7.064;2022-10-16T06:48:20;7.75;;;5.03;;
60239;SDS011;46102;39.012;-7.064;2022-10-16T06:50:21;5.32;;;4.68;;
60239;SDS011;46102;39.012;-7.064;2022-10-16T06:52:22;8.07;;;5.03;;
60239;SDS011;46102;39.012;-7.064;2022-10-16T06:54:23;4.18;;;3.80;;
60239;SDS011;46102;39.012;-7.064;2022-10-16T06:56:24;4.90;;;4.50;;
60239;SDS011;46102;39.012;-7.064;2022-10-16T06:58:26;4.70;;;4.10;;
60239;SDS011;46102;39.012;-7.064;2022-10-16T07:00:27;8.48;;;5.40;;
60239;SDS011;46102;39.012;-7.064;2022-10-16T07:02:28;6.18;;;4.90;;
60239;SDS011;46102;39.012;-7.064;2022-10-16T07:04:28;4.85;;;4.20;;
60239;SDS011;46102;39.012;-7.064;2022-10-16T07:06:30;4.50;;;3.95;;
60239;SDS011;46102;39.012;-7.064;2022-10-16T07:08:34;7.65;;;4.75;;
60239;SDS011;46102;39.012;-7.064;2022-10-16T07:10:37;5.93;;;4.97;;
60239;SDS011;46102;39.012;-7.064;2022-10-16T07:12:38;5.22;;;4.38;;
60239;SDS011;46102;39.012;-7.064;2022-10-16T07:14:39;6.85;;;4.70;;
60239;SDS011;46102;39.012;-7.064;2022-10-16T07:16:39;5.78;;;4.30;;
60239;SDS011;46102;39.012;-7.064;2022-10-16T07:18:40;5.50;;;4.60;;
60239;SDS011;46102;39.012;-7.064;2022-10-16T07:20:43;6.07;;;4.40;;
60239;SDS011;46102;39.012;-7.064;2022-10-16T07:22:43;4.53;;;4.10;;
60239;SDS011;46102;39.012;-7.064;2022-10-16T07:24:44;5.25;;;3.83;;
60239;SDS011;46102;39.012;-7.064;2022-10-16T07:26:45;4.97;;;4.45;;
60239;SDS011;46102;39.012;-7.064;2022-10-16T07:28:46;4.63;;;3.35;;
60239;SDS011;46102;39.012;-7.064;2022-10-16T07:30:47;5.93;;;4.85;;
60239;SDS011;46102;39.012;-7.064;2022-10-16T07:32:48;5.25;;;3.80;;
60239;SDS011;46102;39.012;-7.064;2022-10-16T07:34:49;4.13;;;3.80;;
60239;SDS011;46102;39.012;-7.064;2022-10-16T07:36:50;3.97;;;3.63;;
60239;SDS011;46102;39.012;-7.064;2022-10-16T07:38:51;4.82;;;4.40;;
60239;SDS011;46102;39.012;-7.064;2022-10-16T07:40:58;4.80;;;4.10;;
60239;SDS011;46102;39.012;-7.064;2022-10-16T07:43:01;4.40;;;4.00;;
60239;SDS011;46102;39.012;-7.064;2022-10-16T07:45:02;5.50;;;5.00;;
60239;SDS011;46102;39.012;-7.064;2022-10-16T07:47:03;8.02;;;4.43;;
60239;SDS011;46102;39.012;-7.064;2022-10-16T07:49:04;5.15;;;4.18;;
60239;SDS011;46102;39.012;-7.064;2022-10-16T07:51:05;3.88;;;3.60;;
60239;SDS011;46102;39.012;-7.064;2022-10-16T07:53:07;5.93;;;4.53;;
60239;SDS011;46102;39.012;-7.064;2022-10-16T07:55:08;4.78;;;3.90;;
60239;SDS011;46102;39.012;-7.064;2022-10-16T07:57:09;8.77;;;4.95;;
60239;SDS011;46102;39.012;-7.064;2022-10-16T07:59:09;5.88;;;5.20;;
60239;SDS011;46102;39.012;-7.064;2022-10-16T08:01:11;5.20;;;4.70;;
60239;SDS011;46102;39.012;-7.064;2022-10-16T08:03:14;10.33;;;4.97;;
60239;SDS011;46102;39.012;-7.064;2022-10-16T08:05:14;5.57;;;4.57;;
60239;SDS011;46102;39.012;-7.064;2022-10-16T08:07:15;4.90;;;4.50;;
60239;SDS011;46102;39.012;-7.064;2022-10-16T08:09:16;4.47;;;4.07;;
60239;SDS011;46102;39.012;-7.064;2022-10-16T08:11:16;4.40;;;3.95;;
60239;SDS011;46102;39.012;-7.064;2022-10-16T08:13:17;4.07;;;3.78;;
60239;SDS011;46102;39.012;-7.064;2022-10-16T08:15:18;5.47;;;4.93;;
60239;SDS011;46102;39.012;-7.064;2022-10-16T08:17:20;4.78;;;4.47;;
60239;SDS011;46102;39.012;-7.064;2022-10-16T08:19:20;6.00;;;4.70;;
60239;SDS011;46102;39.012;-7.064;2022-10-16T08:21:22;9.25;;;4.95;;
60239;SDS011;46102;39.012;-7.064;2022-10-16T08:23:23;6.22;;;4.53;;
60239;SDS011;46102;39.012;-7.064;2022-10-16T08:25:26;4.38;;;4.03;;
60239;SDS011;46102;39.012;-7.064;2022-10-16T08:27:33;6.10;;;4.63;;
60239;SDS011;46102;39.012;-7.064;2022-10-16T08:29:34;4.88;;;4.47;;
60239;SDS011;46102;39.012;-7.064;2022-10-16T08:31:34;4.88;;;3.17;;
60239;SDS011;46102;39.012;-7.064;2022-10-16T08:33:35;6.70;;;5.30;;
60239;SDS011;46102;39.012;-7.064;2022-10-16T08:35:36;6.80;;;5.55;;
60239;SDS011;46102;39.012;-7.064;2022-10-16T08:37:37;8.93;;;4.25;;
60239;SDS011;46102;39.012;-7.064;2022-10-16T08:39:39;5.75;;;4.50;;
60239;SDS011;46102;39.012;-7.064;2022-10-16T08:41:48;12.60;;;5.47;;
60239;SDS011;46102;39.012;-7.064;2022-10-16T08:46:32;4.55;;;4.20;;
60239;SDS011;46102;39.012;-7.064;2022-10-16T08:50:54;3.63;;;3.33;;
60239;SDS011;46102;39.012;-7.064;2022-10-16T08:52:55;5.18;;;4.68;;
60239;SDS011;46102;39.012;-7.064;2022-10-16T08:54:57;7.35;;;4.72;;
60239;SDS011;46102;39.012;-7.064;2022-10-16T08:57:00;5.53;;;4.13;;
60239;SDS011;46102;39.012;-7.064;2022-10-16T08:59:10;25.88;;;13.07;;
60239;SDS011;46102;39.012;-7.064;2022-10-16T09:01:13;11.38;;;8.00;;
60239;SDS011;46102;39.012;-7.064;2022-10-16T09:08:03;9.25;;;7.68;;
60239;SDS011;46102;39.012;-7.064;2022-10-16T09:10:23;14.57;;;7.88;;
60239;SDS011;46102;39.012;-7.064;2022-10-16T09:17:00;7.45;;;5.55;;
60239;SDS011;46102;39.012;-7.064;2022-10-16T09:19:24;7.22;;;4.85;;
60239;SDS011;46102;39.012;-7.064;2022-10-16T09:21:34;4.60;;;4.28;;
60239;SDS011;46102;39.012;-7.064;2022-10-16T09:23:38;4.95;;;3.50;;
60239;SDS011;46102;39.012;-7.064;2022-10-16T09:25:39;3.95;;;3.40;;
60239;SDS011;46102;39.012;-7.064;2022-10-16T09:29:48;2.88;;;2.67;;
60239;SDS011;46102;39.012;-7.064;2022-10-16T09:31:49;6.03;;;5.10;;
60239;SDS011;46102;39.012;-7.064;2022-10-16T09:34:00;10.85;;;8.00;;
60239;SDS011;46102;39.012;-7.064;2022-10-16T09:36:06;8.15;;;5.40;;
60239;SDS011;46102;39.012;-7.064;2022-10-16T09:38:08;4.30;;;3.90;;
60239;SDS011;46102;39.012;-7.064;2022-10-16T09:40:30;8.23;;;4.22;;
60239;SDS011;46102;39.012;-7.064;2022-10-16T09:42:34;5.65;;;4.47;;
60239;SDS011;46102;39.012;-7.064;2022-10-16T09:44:37;4.22;;;3.80;;
60239;SDS011;46102;39.012;-7.064;2022-10-16T09:46:39;4.43;;;3.72;;
60239;SDS011;46102;39.012;-7.064;2022-10-16T09:48:43;3.83;;;3.53;;
60239;SDS011;46102;39.012;-7.064;2022-10-16T09:50:58;8.13;;;4.22;;
60239;SDS011;46102;39.012;-7.064;2022-10-16T09:53:04;6.30;;;5.38;;
60239;SDS011;46102;39.012;-7.064;2022-10-16T09:55:15;24.92;;;14.82;;
60239;SDS011;46102;39.012;-7.064;2022-10-16T09:57:18;18.83;;;12.07;;
60239;SDS011;46102;39.012;-7.064;2022-10-16T09:59:20;13.38;;;8.77;;
60239;SDS011;46102;39.012;-7.064;2022-10-16T10:01:26;7.53;;;6.40;;
60239;SDS011;46102;39.012;-7.064;2022-10-16T10:03:35;7.57;;;6.63;;
60239;SDS011;46102;39.012;-7.064;2022-10-16T10:05:38;5.68;;;3.92;;
60239;SDS011;46102;39.012;-7.064;2022-10-16T10:07:42;7.25;;;4.25;;
60239;SDS011;46102;39.012;-7.064;2022-10-16T10:09:46;3.08;;;2.85;;
60239;SDS011;46102;39.012;-7.064;2022-10-16T10:14:03;5.85;;;3.35;;
60239;SDS011;46102;39.012;-7.064;2022-10-16T10:16:04;9.38;;;5.60;;
60239;SDS011;46102;39.012;-7.064;2022-10-16T10:18:15;8.40;;;5.50;;
60239;SDS011;46102;39.012;-7.064;2022-10-16T10:24:28;7.18;;;6.10;;
60239;SDS011;46102;39.012;-7.064;2022-10-16T10:26:29;4.88;;;4.38;;
60239;SDS011;46102;39.012;-7.064;2022-10-16T10:33:11;6.35;;;5.40;;
60239;SDS011;46102;39.012;-7.064;2022-10-16T10:35:22;7.25;;;3.38;;
60239;SDS011;46102;39.012;-7.064;2022-10-16T10:39:52;15.25;;;12.40;;
60239;SDS011;46102;39.012;-7.064;2022-10-16T10:44:19;10.38;;;4.57;;
60239;SDS011;46102;39.012;-7.064;2022-10-16T10:49:03;3.67;;;3.38;;
60239;SDS011;46102;39.012;-7.064;2022-10-16T10:51:13;3.10;;;2.78;;
60239;SDS011;46102;39.012;-7.064;2022-10-16T10:53:24;4.22;;;3.35;;
60239;SDS011;46102;39.012;-7.064;2022-10-16T10:55:37;3.10;;;2.70;;
60239;SDS011;46102;39.012;-7.064;2022-10-16T11:02:41;4.80;;;2.72;;
60239;SDS011;46102;39.012;-7.064;2022-10-16T11:05:07;3.30;;;2.75;;
60239;SDS011;46102;39.012;-7.064;2022-10-16T11:07:18;2.75;;;2.55;;
60239;SDS011;46102;39.012;-7.064;2022-10-16T11:09:28;3.97;;;2.47;;
60239;SDS011;46102;39.012;-7.064;2022-10-16T11:11:41;4.55;;;2.45;;
60239;SDS011;46102;39.012;-7.064;2022-10-16T11:16:27;4.63;;;2.47;;
60239;SDS011;46102;39.012;-7.064;2022-10-16T11:25:20;6.45;;;2.85;;
60239;SDS011;46102;39.012;-7.064;2022-10-16T11:27:35;3.85;;;2.42;;
60239;SDS011;46102;39.012;-7.064;2022-10-16T11:29:43;3.67;;;2.92;;
60239;SDS011;46102;39.012;-7.064;2022-10-16T11:31:50;4.55;;;2.42;;
60239;SDS011;46102;39.012;-7.064;2022-10-16T11:40:52;2.83;;;2.63;;
60239;SDS011;46102;39.012;-7.064;2022-10-16T11:42:58;2.55;;;2.35;;
60239;SDS011;46102;39.012;-7.064;2022-10-16T11:45:29;4.47;;;2.40;;
60239;SDS011;46102;39.012;-7.064;2022-10-16T11:49:59;7.25;;;2.22;;
60239;SDS011;46102;39.012;-7.064;2022-10-16T11:52:20;5.80;;;2.35;;
60239;SDS011;46102;39.012;-7.064;2022-10-16T11:54:32;6.40;;;2.13;;
60239;SDS011;46102;39.012;-7.064;2022-10-16T11:56:39;12.45;;;2.75;;
60239;SDS011;46102;39.012;-7.064;2022-10-16T11:58:45;3.35;;;3.05;;
60239;SDS011;46102;39.012;-7.064;2022-10-16T12:01:02;3.25;;;2.17;;
60239;SDS011;46102;39.012;-7.064;2022-10-16T12:07:53;2.83;;;2.30;;
60239;SDS011;46102;39.012;-7.064;2022-10-16T12:10:20;6.63;;;2.47;;
60239;SDS011;46102;39.012;-7.064;2022-10-16T12:12:26;2.25;;;2.05;;
60239;SDS011;46102;39.012;-7.064;2022-10-16T12:14:37;6.05;;;2.45;;
60239;SDS011;46102;39.012;-7.064;2022-10-16T12:16:56;4.03;;;2.70;;
60239;SDS011;46102;39.012;-7.064;2022-10-16T12:19:13;8.30;;;2.70;;
60239;SDS011;46102;39.012;-7.064;2022-10-16T12:21:16;2.72;;;2.47;;
60239;SDS011;46102;39.012;-7.064;2022-10-16T12:23:19;3.97;;;2.60;;
60239;SDS011;46102;39.012;-7.064;2022-10-16T12:25:26;3.78;;;2.45;;
60239;SDS011;46102;39.012;-7.064;2022-10-16T12:27:32;3.08;;;2.25;;
60239;SDS011;46102;39.012;-7.064;2022-10-16T12:29:40;3.10;;;2.00;;
60239;SDS011;46102;39.012;-7.064;2022-10-16T12:31:45;2.47;;;2.28;;
60239;SDS011;46102;39.012;-7.064;2022-10-16T12:33:53;2.80;;;2.50;;
60239;SDS011;46102;39.012;-7.064;2022-10-16T12:36:01;3.45;;;2.03;;
60239;SDS011;46102;39.012;-7.064;2022-10-16T12:44:26;3.70;;;2.38;;
60239;SDS011;46102;39.012;-7.064;2022-10-16T12:48:33;3.90;;;2.67;;
60239;SDS011;46102;39.012;-7.064;2022-10-16T12:50:37;3.63;;;2.53;;
60239;SDS011;46102;39.012;-7.064;2022-10-16T12:52:39;3.13;;;2.22;;
60239;SDS011;46102;39.012;-7.064;2022-10-16T12:54:40;7.55;;;2.50;;
60239;SDS011;46102;39.012;-7.064;2022-10-16T13:05:43;4.68;;;1.83;;
60239;SDS011;46102;39.012;-7.064;2022-10-16T13:10:19;3.20;;;2.08;;
60239;SDS011;46102;39.012;-7.064;2022-10-16T13:17:17;2.58;;;2.15;;
60239;SDS011;46102;39.012;-7.064;2022-10-16T13:19:36;4.30;;;2.20;;
60239;SDS011;46102;39.012;-7.064;2022-10-16T13:21:49;4.10;;;2.47;;
60239;SDS011;46102;39.012;-7.064;2022-10-16T13:26:17;6.80;;;2.70;;
60239;SDS011;46102;39.012;-7.064;2022-10-16T13:28:39;3.70;;;2.70;;
60239;SDS011;46102;39.012;-7.064;2022-10-16T13:30:40;5.47;;;2.38;;
60239;SDS011;46102;39.012;-7.064;2022-10-16T13:32:44;3.65;;;2.53;;
60239;SDS011;46102;39.012;-7.064;2022-10-16T13:36:49;6.57;;;2.53;;
60239;SDS011;46102;39.012;-7.064;2022-10-16T13:41:17;4.63;;;2.78;;
60239;SDS011;46102;39.012;-7.064;2022-10-16T13:43:19;3.85;;;2.40;;
60239;SDS011;46102;39.012;-7.064;2022-10-16T13:45:23;3.03;;;2.50;;
60239;SDS011;46102;39.012;-7.064;2022-10-16T13:47:29;8.60;;;2.60;;
60239;SDS011;46102;39.012;-7.064;2022-10-16T13:49:30;4.80;;;2.70;;
60239;SDS011;46102;39.012;-7.064;2022-10-16T13:51:32;4.82;;;2.63;;
60239;SDS011;46102;39.012;-7.064;2022-10-16T13:53:34;3.35;;;3.05;;
60239;SDS011;46102;39.012;-7.064;2022-10-16T13:55:35;3.80;;;2.38;;
60239;SDS011;46102;39.012;-7.064;2022-10-16T13:57:36;2.70;;;2.50;;
60239;SDS011;46102;39.012;-7.064;2022-10-16T13:59:37;4.18;;;2.40;;
60239;SDS011;46102;39.012;-7.064;2022-10-16T14:01:42;6.30;;;3.75;;
60239;SDS011;46102;39.012;-7.064;2022-10-16T14:03:44;3.92;;;2.83;;
60239;SDS011;46102;39.012;-7.064;2022-10-16T14:05:47;5.60;;;2.38;;
60239;SDS011;46102;39.012;-7.064;2022-10-16T14:07:50;4.68;;;3.33;;